sensor_id;sensor_type;location;lat;lon;timestamp;P1;durP1;ratioP1;P2;durP2;ratioP2
3841;SDS011;1936;47.074;15.336;2022-08-01T00:01:04;5.67;;;4.40;;
3841;SDS011;1936;47.074;15.336;2022-08-01T00:03:07;4.97;;;4.47;;
3841;SDS011;1936;47.074;15.336;2022-08-01T00:05:11;4.80;;;4.40;;
3841;SDS011;1936;47.074;15.336;2022-08-01T00:07:15;4.30;;;4.00;;
3841;SDS011;1936;47.074;15.336;2022-08-01T00:09:18;5.40;;;4.90;;
3841;SDS011;1936;47.074;15.336;2022-08-01T00:11:24;4.67;;;4.27;;
3841;SDS011;1936;47.074;15.336;2022-08-01T00:13:28;8.43;;;5.03;;
3841;SDS011;1936;47.074;15.336;2022-08-01T00:15:33;5.23;;;4.50;;
3841;SDS011;1936;47.074;15.336;2022-08-01T00:17:37;5.30;;;4.20;;
3841;SDS011;1936;47.074;15.336;2022-08-01T00:19:42;4.87;;;4.37;;
3841;SDS011;1936;47.074;15.336;2022-08-01T00:21:45;6.37;;;5.77;;
3841;SDS011;1936;47.074;15.336;2022-08-01T00:23:52;5.47;;;4.90;;
3841;SDS011;1936;47.074;15.336;2022-08-01T00:25:56;4.93;;;4.37;;
3841;SDS011;1936;47.074;15.336;2022-08-01T00:27:59;4.40;;;4.10;;
3841;SDS011;1936;47.074;15.336;2022-08-01T00:30:05;5.50;;;4.70;;
3841;SDS011;1936;47.074;15.336;2022-08-01T00:32:16;7.00;;;5.30;;
3841;SDS011;1936;47.074;15.336;2022-08-01T00:34:20;4.90;;;4.50;;
3841;SDS011;1936;47.074;15.336;2022-08-01T00:36:23;4.80;;;4.27;;
3841;SDS011;1936;47.074;15.336;2022-08-01T00:38:27;4.93;;;4.10;;
3841;SDS011;1936;47.074;15.336;2022-08-01T00:40:31;4.57;;;4.17;;
3841;SDS011;1936;47.074;15.336;2022-08-01T00:42:34;4.93;;;4.53;;
3841;SDS011;1936;47.074;15.336;2022-08-01T00:44:44;5.70;;;5.10;;
3841;SDS011;1936;47.074;15.336;2022-08-01T00:46:47;5.87;;;4.27;;
3841;SDS011;1936;47.074;15.336;2022-08-01T00:48:52;4.20;;;3.80;;
3841;SDS011;1936;47.074;15.336;2022-08-01T00:50:56;4.73;;;4.33;;
3841;SDS011;1936;47.074;15.336;2022-08-01T00:53:00;5.10;;;4.60;;
3841;SDS011;1936;47.074;15.336;2022-08-01T00:55:04;5.60;;;4.97;;
3841;SDS011;1936;47.074;15.336;2022-08-01T00:57:15;4.70;;;4.20;;
3841;SDS011;1936;47.074;15.336;2022-08-01T00:59:39;4.73;;;4.33;;
3841;SDS011;1936;47.074;15.336;2022-08-01T01:01:44;5.67;;;4.93;;
3841;SDS011;1936;47.074;15.336;2022-08-01T01:03:50;4.70;;;4.30;;
3841;SDS011;1936;47.074;15.336;2022-08-01T01:06:05;5.63;;;4.60;;
3841;SDS011;1936;47.074;15.336;2022-08-01T01:08:11;5.83;;;5.23;;
3841;SDS011;1936;47.074;15.336;2022-08-01T01:10:17;5.40;;;5.00;;
3841;SDS011;1936;47.074;15.336;2022-08-01T01:12:25;4.93;;;4.53;;
3841;SDS011;1936;47.074;15.336;2022-08-01T01:14:41;5.90;;;5.30;;
3841;SDS011;1936;47.074;15.336;2022-08-01T01:16:47;5.53;;;4.60;;
3841;SDS011;1936;47.074;15.336;2022-08-01T01:18:53;6.10;;;5.40;;
3841;SDS011;1936;47.074;15.336;2022-08-01T01:20:58;5.40;;;5.00;;
3841;SDS011;1936;47.074;15.336;2022-08-01T01:23:12;5.00;;;4.60;;
3841;SDS011;1936;47.074;15.336;2022-08-01T01:25:21;8.70;;;5.20;;
3841;SDS011;1936;47.074;15.336;2022-08-01T01:27:32;6.10;;;5.50;;
3841;SDS011;1936;47.074;15.336;2022-08-01T01:29:43;6.23;;;5.63;;
3841;SDS011;1936;47.074;15.336;2022-08-01T01:32:02;6.43;;;4.97;;
3841;SDS011;1936;47.074;15.336;2022-08-01T01:34:09;7.83;;;4.77;;
3841;SDS011;1936;47.074;15.336;2022-08-01T01:36:14;5.10;;;4.70;;
3841;SDS011;1936;47.074;15.336;2022-08-01T01:38:21;4.33;;;4.03;;
3841;SDS011;1936;47.074;15.336;2022-08-01T01:40:25;7.17;;;4.23;;
3841;SDS011;1936;47.074;15.336;2022-08-01T01:42:29;4.60;;;4.30;;
3841;SDS011;1936;47.074;15.336;2022-08-01T01:44:34;7.97;;;5.10;;
3841;SDS011;1936;47.074;15.336;2022-08-01T01:46:41;6.63;;;6.03;;
3841;SDS011;1936;47.074;15.336;2022-08-01T01:48:45;4.83;;;4.43;;
3841;SDS011;1936;47.074;15.336;2022-08-01T01:50:50;5.73;;;5.20;;
3841;SDS011;1936;47.074;15.336;2022-08-01T01:52:54;5.60;;;5.10;;
3841;SDS011;1936;47.074;15.336;2022-08-01T01:54:59;8.50;;;5.40;;
3841;SDS011;1936;47.074;15.336;2022-08-01T01:57:03;5.30;;;4.90;;
3841;SDS011;1936;47.074;15.336;2022-08-01T01:59:08;8.80;;;4.70;;
3841;SDS011;1936;47.074;15.336;2022-08-01T02:01:11;5.40;;;4.57;;
3841;SDS011;1936;47.074;15.336;2022-08-01T02:03:37;6.87;;;5.43;;
3841;SDS011;1936;47.074;15.336;2022-08-01T02:05:43;7.03;;;5.23;;
3841;SDS011;1936;47.074;15.336;2022-08-01T02:07:47;5.87;;;5.37;;
3841;SDS011;1936;47.074;15.336;2022-08-01T02:10:00;5.87;;;5.27;;
3841;SDS011;1936;47.074;15.336;2022-08-01T02:12:05;4.83;;;4.43;;
3841;SDS011;1936;47.074;15.336;2022-08-01T02:14:09;6.50;;;5.90;;
3841;SDS011;1936;47.074;15.336;2022-08-01T02:16:14;5.63;;;5.13;;
3841;SDS011;1936;47.074;15.336;2022-08-01T02:18:18;7.40;;;5.43;;
3841;SDS011;1936;47.074;15.336;2022-08-01T02:20:25;6.43;;;4.77;;
3841;SDS011;1936;47.074;15.336;2022-08-01T02:22:31;6.57;;;4.73;;
3841;SDS011;1936;47.074;15.336;2022-08-01T02:24:36;5.97;;;5.47;;
3841;SDS011;1936;47.074;15.336;2022-08-01T02:26:41;6.30;;;5.10;;
3841;SDS011;1936;47.074;15.336;2022-08-01T02:28:47;6.37;;;5.63;;
3841;SDS011;1936;47.074;15.336;2022-08-01T02:30:51;4.90;;;4.50;;
3841;SDS011;1936;47.074;15.336;2022-08-01T02:32:56;6.17;;;5.67;;
3841;SDS011;1936;47.074;15.336;2022-08-01T02:35:03;4.83;;;4.43;;
3841;SDS011;1936;47.074;15.336;2022-08-01T02:37:10;5.80;;;5.20;;
3841;SDS011;1936;47.074;15.336;2022-08-01T02:39:14;6.07;;;5.30;;
3841;SDS011;1936;47.074;15.336;2022-08-01T02:41:19;8.27;;;5.40;;
3841;SDS011;1936;47.074;15.336;2022-08-01T02:43:26;5.50;;;4.87;;
3841;SDS011;1936;47.074;15.336;2022-08-01T02:45:33;5.27;;;4.77;;
3841;SDS011;1936;47.074;15.336;2022-08-01T02:47:38;7.40;;;5.20;;
3841;SDS011;1936;47.074;15.336;2022-08-01T02:49:44;4.80;;;4.40;;
3841;SDS011;1936;47.074;15.336;2022-08-01T02:51:54;5.87;;;5.27;;
3841;SDS011;1936;47.074;15.336;2022-08-01T02:53:59;5.43;;;4.93;;
3841;SDS011;1936;47.074;15.336;2022-08-01T02:56:05;6.43;;;5.20;;
3841;SDS011;1936;47.074;15.336;2022-08-01T02:58:09;5.00;;;4.60;;
3841;SDS011;1936;47.074;15.336;2022-08-01T03:00:14;5.47;;;4.73;;
3841;SDS011;1936;47.074;15.336;2022-08-01T03:02:18;5.07;;;4.60;;
3841;SDS011;1936;47.074;15.336;2022-08-01T03:04:23;5.90;;;5.40;;
3841;SDS011;1936;47.074;15.336;2022-08-01T03:06:27;5.30;;;4.80;;
3841;SDS011;1936;47.074;15.336;2022-08-01T03:08:32;5.17;;;4.77;;
3841;SDS011;1936;47.074;15.336;2022-08-01T03:10:38;8.20;;;4.47;;
3841;SDS011;1936;47.074;15.336;2022-08-01T03:12:42;4.53;;;4.20;;
3841;SDS011;1936;47.074;15.336;2022-08-01T03:14:49;5.30;;;4.30;;
3841;SDS011;1936;47.074;15.336;2022-08-01T03:16:54;5.07;;;4.57;;
3841;SDS011;1936;47.074;15.336;2022-08-01T03:18:58;5.40;;;5.00;;
3841;SDS011;1936;47.074;15.336;2022-08-01T03:21:04;4.80;;;4.30;;
3841;SDS011;1936;47.074;15.336;2022-08-01T03:23:09;7.10;;;4.57;;
3841;SDS011;1936;47.074;15.336;2022-08-01T03:25:14;6.97;;;4.40;;
3841;SDS011;1936;47.074;15.336;2022-08-01T03:27:20;5.00;;;4.47;;
3841;SDS011;1936;47.074;15.336;2022-08-01T03:29:25;5.63;;;4.40;;
3841;SDS011;1936;47.074;15.336;2022-08-01T03:31:29;6.60;;;4.50;;
3841;SDS011;1936;47.074;15.336;2022-08-01T03:33:35;6.60;;;5.13;;
3841;SDS011;1936;47.074;15.336;2022-08-01T03:35:39;5.27;;;4.77;;
3841;SDS011;1936;47.074;15.336;2022-08-01T03:37:46;6.33;;;5.00;;
3841;SDS011;1936;47.074;15.336;2022-08-01T03:40:11;6.10;;;5.50;;
3841;SDS011;1936;47.074;15.336;2022-08-01T03:42:18;5.50;;;4.87;;
3841;SDS011;1936;47.074;15.336;2022-08-01T03:44:25;4.60;;;4.23;;
3841;SDS011;1936;47.074;15.336;2022-08-01T03:46:34;5.73;;;5.23;;
3841;SDS011;1936;47.074;15.336;2022-08-01T03:48:39;5.47;;;4.83;;
3841;SDS011;1936;47.074;15.336;2022-08-01T03:50:45;4.80;;;4.43;;
3841;SDS011;1936;47.074;15.336;2022-08-01T03:52:49;5.10;;;4.10;;
3841;SDS011;1936;47.074;15.336;2022-08-01T03:54:54;4.63;;;4.23;;
3841;SDS011;1936;47.074;15.336;2022-08-01T03:56:58;4.67;;;4.33;;
3841;SDS011;1936;47.074;15.336;2022-08-01T03:59:03;5.27;;;4.87;;
3841;SDS011;1936;47.074;15.336;2022-08-01T04:01:08;11.50;;;5.00;;
3841;SDS011;1936;47.074;15.336;2022-08-01T04:03:16;5.43;;;5.03;;
3841;SDS011;1936;47.074;15.336;2022-08-01T04:05:20;5.80;;;5.30;;
3841;SDS011;1936;47.074;15.336;2022-08-01T04:07:27;5.70;;;5.30;;
3841;SDS011;1936;47.074;15.336;2022-08-01T04:09:32;5.30;;;4.80;;
3841;SDS011;1936;47.074;15.336;2022-08-01T04:11:36;5.70;;;5.20;;
3841;SDS011;1936;47.074;15.336;2022-08-01T04:13:39;6.27;;;4.83;;
3841;SDS011;1936;47.074;15.336;2022-08-01T04:15:47;12.00;;;5.30;;
3841;SDS011;1936;47.074;15.336;2022-08-01T04:17:53;14.67;;;7.90;;
3841;SDS011;1936;47.074;15.336;2022-08-01T04:19:56;6.20;;;5.70;;
3841;SDS011;1936;47.074;15.336;2022-08-01T04:22:00;6.77;;;5.03;;
3841;SDS011;1936;47.074;15.336;2022-08-01T04:24:06;5.73;;;5.23;;
3841;SDS011;1936;47.074;15.336;2022-08-01T04:26:10;5.40;;;5.00;;
3841;SDS011;1936;47.074;15.336;2022-08-01T04:28:15;5.73;;;5.23;;
3841;SDS011;1936;47.074;15.336;2022-08-01T04:30:22;6.10;;;5.60;;
3841;SDS011;1936;47.074;15.336;2022-08-01T04:32:28;5.50;;;5.10;;
3841;SDS011;1936;47.074;15.336;2022-08-01T04:34:34;6.23;;;5.73;;
3841;SDS011;1936;47.074;15.336;2022-08-01T04:36:42;7.50;;;6.90;;
3841;SDS011;1936;47.074;15.336;2022-08-01T04:38:48;7.63;;;5.23;;
3841;SDS011;1936;47.074;15.336;2022-08-01T04:40:54;5.53;;;4.90;;
3841;SDS011;1936;47.074;15.336;2022-08-01T04:42:58;6.37;;;4.50;;
3841;SDS011;1936;47.074;15.336;2022-08-01T04:45:02;6.00;;;4.70;;
3841;SDS011;1936;47.074;15.336;2022-08-01T04:47:06;8.33;;;5.00;;
3841;SDS011;1936;47.074;15.336;2022-08-01T04:49:10;6.30;;;5.23;;
3841;SDS011;1936;47.074;15.336;2022-08-01T04:51:17;6.50;;;5.77;;
3841;SDS011;1936;47.074;15.336;2022-08-01T04:53:23;6.80;;;5.07;;
3841;SDS011;1936;47.074;15.336;2022-08-01T04:55:28;4.57;;;4.17;;
3841;SDS011;1936;47.074;15.336;2022-08-01T04:57:33;4.93;;;4.53;;
3841;SDS011;1936;47.074;15.336;2022-08-01T04:59:38;6.97;;;5.40;;
3841;SDS011;1936;47.074;15.336;2022-08-01T05:01:47;5.63;;;5.23;;
3841;SDS011;1936;47.074;15.336;2022-08-01T05:03:52;5.30;;;4.90;;
3841;SDS011;1936;47.074;15.336;2022-08-01T05:05:56;4.70;;;4.30;;
3841;SDS011;1936;47.074;15.336;2022-08-01T05:08:01;5.43;;;4.93;;
3841;SDS011;1936;47.074;15.336;2022-08-01T05:10:04;8.97;;;4.90;;
3841;SDS011;1936;47.074;15.336;2022-08-01T05:12:08;4.50;;;4.10;;
3841;SDS011;1936;47.074;15.336;2022-08-01T05:14:13;5.70;;;4.37;;
3841;SDS011;1936;47.074;15.336;2022-08-01T05:16:17;4.97;;;4.47;;
3841;SDS011;1936;47.074;15.336;2022-08-01T05:18:21;5.07;;;4.00;;
3841;SDS011;1936;47.074;15.336;2022-08-01T05:20:28;5.40;;;5.00;;
3841;SDS011;1936;47.074;15.336;2022-08-01T05:22:33;5.63;;;4.00;;
3841;SDS011;1936;47.074;15.336;2022-08-01T05:24:38;4.63;;;4.20;;
3841;SDS011;1936;47.074;15.336;2022-08-01T05:26:45;4.23;;;3.73;;
3841;SDS011;1936;47.074;15.336;2022-08-01T05:28:50;4.63;;;4.23;;
3841;SDS011;1936;47.074;15.336;2022-08-01T05:30:54;5.23;;;4.73;;
3841;SDS011;1936;47.074;15.336;2022-08-01T05:32:57;9.20;;;4.80;;
3841;SDS011;1936;47.074;15.336;2022-08-01T05:35:01;4.83;;;4.43;;
3841;SDS011;1936;47.074;15.336;2022-08-01T05:37:05;3.80;;;3.50;;
3841;SDS011;1936;47.074;15.336;2022-08-01T05:39:09;4.40;;;4.00;;
3841;SDS011;1936;47.074;15.336;2022-08-01T05:41:18;4.17;;;3.87;;
3841;SDS011;1936;47.074;15.336;2022-08-01T05:43:22;7.10;;;4.30;;
3841;SDS011;1936;47.074;15.336;2022-08-01T05:45:29;5.03;;;4.63;;
3841;SDS011;1936;47.074;15.336;2022-08-01T05:47:33;6.20;;;4.27;;
3841;SDS011;1936;47.074;15.336;2022-08-01T05:49:47;5.70;;;4.63;;
3841;SDS011;1936;47.074;15.336;2022-08-01T05:51:53;5.17;;;4.77;;
3841;SDS011;1936;47.074;15.336;2022-08-01T05:53:57;5.70;;;4.27;;
3841;SDS011;1936;47.074;15.336;2022-08-01T05:56:00;3.97;;;3.67;;
3841;SDS011;1936;47.074;15.336;2022-08-01T05:58:06;5.43;;;4.27;;
3841;SDS011;1936;47.074;15.336;2022-08-01T06:00:13;5.50;;;5.00;;
3841;SDS011;1936;47.074;15.336;2022-08-01T06:02:17;4.63;;;4.23;;
3841;SDS011;1936;47.074;15.336;2022-08-01T06:04:21;5.77;;;4.17;;
3841;SDS011;1936;47.074;15.336;2022-08-01T06:06:25;9.47;;;4.83;;
3841;SDS011;1936;47.074;15.336;2022-08-01T06:08:29;7.40;;;4.30;;
3841;SDS011;1936;47.074;15.336;2022-08-01T06:10:33;5.50;;;4.50;;
3841;SDS011;1936;47.074;15.336;2022-08-01T06:12:37;7.47;;;5.30;;
3841;SDS011;1936;47.074;15.336;2022-08-01T06:14:42;8.90;;;4.87;;
3841;SDS011;1936;47.074;15.336;2022-08-01T06:16:46;4.87;;;4.40;;
3841;SDS011;1936;47.074;15.336;2022-08-01T06:18:50;7.33;;;4.23;;
3841;SDS011;1936;47.074;15.336;2022-08-01T06:20:57;4.90;;;4.50;;
3841;SDS011;1936;47.074;15.336;2022-08-01T06:23:00;3.70;;;3.40;;
3841;SDS011;1936;47.074;15.336;2022-08-01T06:25:25;6.37;;;3.33;;
3841;SDS011;1936;47.074;15.336;2022-08-01T06:27:28;6.80;;;4.10;;
3841;SDS011;1936;47.074;15.336;2022-08-01T06:29:32;4.97;;;4.57;;
3841;SDS011;1936;47.074;15.336;2022-08-01T06:31:37;7.00;;;4.63;;
3841;SDS011;1936;47.074;15.336;2022-08-01T06:33:41;6.03;;;5.10;;
3841;SDS011;1936;47.074;15.336;2022-08-01T06:35:45;3.63;;;3.33;;
3841;SDS011;1936;47.074;15.336;2022-08-01T06:37:48;4.87;;;4.47;;
3841;SDS011;1936;47.074;15.336;2022-08-01T06:39:53;6.00;;;4.07;;
3841;SDS011;1936;47.074;15.336;2022-08-01T06:41:57;5.77;;;4.20;;
3841;SDS011;1936;47.074;15.336;2022-08-01T06:44:00;5.00;;;3.80;;
3841;SDS011;1936;47.074;15.336;2022-08-01T06:46:05;4.40;;;4.10;;
3841;SDS011;1936;47.074;15.336;2022-08-01T06:48:10;4.10;;;3.70;;
3841;SDS011;1936;47.074;15.336;2022-08-01T06:50:15;4.17;;;3.77;;
3841;SDS011;1936;47.074;15.336;2022-08-01T06:52:18;4.30;;;3.90;;
3841;SDS011;1936;47.074;15.336;2022-08-01T06:54:22;5.40;;;4.17;;
3841;SDS011;1936;47.074;15.336;2022-08-01T06:56:26;5.60;;;3.47;;
3841;SDS011;1936;47.074;15.336;2022-08-01T06:58:30;5.00;;;4.30;;
3841;SDS011;1936;47.074;15.336;2022-08-01T07:00:35;4.00;;;3.60;;
3841;SDS011;1936;47.074;15.336;2022-08-01T07:02:39;3.17;;;2.87;;
3841;SDS011;1936;47.074;15.336;2022-08-01T07:04:45;4.33;;;3.93;;
3841;SDS011;1936;47.074;15.336;2022-08-01T07:06:48;4.27;;;3.83;;
3841;SDS011;1936;47.074;15.336;2022-08-01T07:08:53;4.37;;;3.57;;
3841;SDS011;1936;47.074;15.336;2022-08-01T07:10:56;5.40;;;4.23;;
3841;SDS011;1936;47.074;15.336;2022-08-01T07:13:00;4.07;;;3.40;;
3841;SDS011;1936;47.074;15.336;2022-08-01T07:15:05;3.50;;;3.20;;
3841;SDS011;1936;47.074;15.336;2022-08-01T07:17:09;4.07;;;3.67;;
3841;SDS011;1936;47.074;15.336;2022-08-01T07:19:12;3.90;;;3.53;;
3841;SDS011;1936;47.074;15.336;2022-08-01T07:21:17;3.87;;;2.87;;
3841;SDS011;1936;47.074;15.336;2022-08-01T07:23:41;4.00;;;2.77;;
3841;SDS011;1936;47.074;15.336;2022-08-01T07:25:46;3.40;;;2.60;;
3841;SDS011;1936;47.074;15.336;2022-08-01T07:27:53;2.70;;;2.30;;
3841;SDS011;1936;47.074;15.336;2022-08-01T07:29:56;4.00;;;2.87;;
3841;SDS011;1936;47.074;15.336;2022-08-01T07:32:00;8.77;;;2.90;;
3841;SDS011;1936;47.074;15.336;2022-08-01T07:34:04;2.90;;;1.83;;
3841;SDS011;1936;47.074;15.336;2022-08-01T07:36:08;2.57;;;2.37;;
3841;SDS011;1936;47.074;15.336;2022-08-01T07:38:13;2.30;;;2.10;;
3841;SDS011;1936;47.074;15.336;2022-08-01T07:40:18;2.67;;;2.47;;
3841;SDS011;1936;47.074;15.336;2022-08-01T07:42:22;2.63;;;1.97;;
3841;SDS011;1936;47.074;15.336;2022-08-01T07:44:26;6.53;;;2.27;;
3841;SDS011;1936;47.074;15.336;2022-08-01T07:46:30;7.30;;;1.90;;
3841;SDS011;1936;47.074;15.336;2022-08-01T07:48:34;2.10;;;1.97;;
3841;SDS011;1936;47.074;15.336;2022-08-01T07:50:38;2.93;;;2.73;;
3841;SDS011;1936;47.074;15.336;2022-08-01T07:52:41;5.73;;;2.33;;
3841;SDS011;1936;47.074;15.336;2022-08-01T07:54:46;2.20;;;2.00;;
3841;SDS011;1936;47.074;15.336;2022-08-01T07:56:53;3.37;;;2.00;;
3841;SDS011;1936;47.074;15.336;2022-08-01T07:58:58;2.83;;;2.53;;
3841;SDS011;1936;47.074;15.336;2022-08-01T08:01:01;2.60;;;2.07;;
3841;SDS011;1936;47.074;15.336;2022-08-01T08:03:05;2.27;;;2.07;;
3841;SDS011;1936;47.074;15.336;2022-08-01T08:05:09;2.77;;;2.10;;
3841;SDS011;1936;47.074;15.336;2022-08-01T08:07:13;4.17;;;2.40;;
3841;SDS011;1936;47.074;15.336;2022-08-01T08:09:16;3.87;;;2.77;;
3841;SDS011;1936;47.074;15.336;2022-08-01T08:11:22;2.70;;;2.37;;
3841;SDS011;1936;47.074;15.336;2022-08-01T08:13:30;5.20;;;2.40;;
3841;SDS011;1936;47.074;15.336;2022-08-01T08:15:34;3.33;;;2.57;;
3841;SDS011;1936;47.074;15.336;2022-08-01T08:17:38;3.20;;;2.67;;
3841;SDS011;1936;47.074;15.336;2022-08-01T08:19:42;4.13;;;3.00;;
3841;SDS011;1936;47.074;15.336;2022-08-01T08:21:46;5.53;;;2.30;;
3841;SDS011;1936;47.074;15.336;2022-08-01T08:23:50;4.83;;;2.17;;
3841;SDS011;1936;47.074;15.336;2022-08-01T08:26:13;7.07;;;4.20;;
3841;SDS011;1936;47.074;15.336;2022-08-01T08:28:17;3.53;;;2.33;;
3841;SDS011;1936;47.074;15.336;2022-08-01T08:30:28;2.37;;;1.33;;
3841;SDS011;1936;47.074;15.336;2022-08-01T08:32:31;2.23;;;2.03;;
3841;SDS011;1936;47.074;15.336;2022-08-01T08:34:35;2.60;;;1.60;;
3841;SDS011;1936;47.074;15.336;2022-08-01T08:36:39;5.33;;;1.67;;
3841;SDS011;1936;47.074;15.336;2022-08-01T08:38:48;1.40;;;1.30;;
3841;SDS011;1936;47.074;15.336;2022-08-01T08:40:52;3.03;;;1.87;;
3841;SDS011;1936;47.074;15.336;2022-08-01T08:42:56;1.80;;;1.40;;
3841;SDS011;1936;47.074;15.336;2022-08-01T08:45:04;1.33;;;1.07;;
3841;SDS011;1936;47.074;15.336;2022-08-01T08:47:13;1.27;;;1.17;;
3841;SDS011;1936;47.074;15.336;2022-08-01T08:49:21;2.40;;;1.43;;
3841;SDS011;1936;47.074;15.336;2022-08-01T08:51:26;2.70;;;1.13;;
3841;SDS011;1936;47.074;15.336;2022-08-01T08:53:32;2.20;;;1.17;;
3841;SDS011;1936;47.074;15.336;2022-08-01T08:55:37;0.90;;;0.80;;
3841;SDS011;1936;47.074;15.336;2022-08-01T08:57:57;3.03;;;1.40;;
3841;SDS011;1936;47.074;15.336;2022-08-01T09:00:06;1.37;;;1.10;;
3841;SDS011;1936;47.074;15.336;2022-08-01T09:02:11;3.20;;;1.30;;
3841;SDS011;1936;47.074;15.336;2022-08-01T09:04:15;2.40;;;1.40;;
3841;SDS011;1936;47.074;15.336;2022-08-01T09:06:23;1.17;;;1.07;;
3841;SDS011;1936;47.074;15.336;2022-08-01T09:08:28;1.10;;;0.97;;
3841;SDS011;1936;47.074;15.336;2022-08-01T09:10:31;0.90;;;0.90;;
3841;SDS011;1936;47.074;15.336;2022-08-01T09:12:36;1.47;;;1.37;;
3841;SDS011;1936;47.074;15.336;2022-08-01T09:14:44;1.90;;;1.13;;
3841;SDS011;1936;47.074;15.336;2022-08-01T09:16:59;1.30;;;1.03;;
3841;SDS011;1936;47.074;15.336;2022-08-01T09:19:09;2.40;;;1.20;;
3841;SDS011;1936;47.074;15.336;2022-08-01T09:21:34;1.90;;;1.20;;
3841;SDS011;1936;47.074;15.336;2022-08-01T09:23:41;1.63;;;1.40;;
3841;SDS011;1936;47.074;15.336;2022-08-01T09:25:55;1.40;;;1.17;;
3841;SDS011;1936;47.074;15.336;2022-08-01T09:28:03;2.97;;;1.27;;
3841;SDS011;1936;47.074;15.336;2022-08-01T09:30:09;1.97;;;1.87;;
3841;SDS011;1936;47.074;15.336;2022-08-01T09:32:20;3.00;;;1.40;;
3841;SDS011;1936;47.074;15.336;2022-08-01T09:34:27;3.80;;;1.50;;
3841;SDS011;1936;47.074;15.336;2022-08-01T09:36:43;2.10;;;1.20;;
3841;SDS011;1936;47.074;15.336;2022-08-01T09:38:49;2.60;;;1.50;;
3841;SDS011;1936;47.074;15.336;2022-08-01T09:40:57;3.63;;;1.10;;
3841;SDS011;1936;47.074;15.336;2022-08-01T09:43:10;1.50;;;1.30;;
3841;SDS011;1936;47.074;15.336;2022-08-01T09:47:45;3.23;;;1.30;;
3841;SDS011;1936;47.074;15.336;2022-08-01T09:49:53;3.83;;;1.73;;
3841;SDS011;1936;47.074;15.336;2022-08-01T09:52:09;3.63;;;1.60;;
3841;SDS011;1936;47.074;15.336;2022-08-01T09:54:13;4.33;;;1.77;;
3841;SDS011;1936;47.074;15.336;2022-08-01T09:56:35;1.20;;;1.10;;
3841;SDS011;1936;47.074;15.336;2022-08-01T09:58:52;3.33;;;1.30;;
3841;SDS011;1936;47.074;15.336;2022-08-01T10:01:01;1.53;;;1.27;;
3841;SDS011;1936;47.074;15.336;2022-08-01T10:03:20;3.43;;;1.80;;
3841;SDS011;1936;47.074;15.336;2022-08-01T10:05:31;1.63;;;1.40;;
3841;SDS011;1936;47.074;15.336;2022-08-01T10:10:08;1.97;;;1.30;;
3841;SDS011;1936;47.074;15.336;2022-08-01T10:12:14;3.63;;;1.03;;
3841;SDS011;1936;47.074;15.336;2022-08-01T10:14:18;1.60;;;1.50;;
3841;SDS011;1936;47.074;15.336;2022-08-01T10:16:23;1.63;;;1.20;;
3841;SDS011;1936;47.074;15.336;2022-08-01T10:18:32;1.93;;;1.50;;
3841;SDS011;1936;47.074;15.336;2022-08-01T10:20:38;1.90;;;1.73;;
3841;SDS011;1936;47.074;15.336;2022-08-01T10:22:44;2.13;;;1.93;;
3841;SDS011;1936;47.074;15.336;2022-08-01T10:24:48;2.03;;;1.83;;
3841;SDS011;1936;47.074;15.336;2022-08-01T10:26:55;3.43;;;2.17;;
3841;SDS011;1936;47.074;15.336;2022-08-01T10:29:08;3.73;;;1.47;;
3841;SDS011;1936;47.074;15.336;2022-08-01T10:31:32;2.57;;;1.50;;
3841;SDS011;1936;47.074;15.336;2022-08-01T10:33:40;2.93;;;1.53;;
3841;SDS011;1936;47.074;15.336;2022-08-01T10:35:53;1.90;;;1.37;;
3841;SDS011;1936;47.074;15.336;2022-08-01T10:37:56;2.80;;;1.63;;
3841;SDS011;1936;47.074;15.336;2022-08-01T10:40:01;2.67;;;1.07;;
3841;SDS011;1936;47.074;15.336;2022-08-01T10:42:26;1.30;;;1.20;;
3841;SDS011;1936;47.074;15.336;2022-08-01T10:44:30;3.77;;;1.50;;
3841;SDS011;1936;47.074;15.336;2022-08-01T10:46:34;1.97;;;1.63;;
3841;SDS011;1936;47.074;15.336;2022-08-01T10:48:49;1.30;;;1.20;;
3841;SDS011;1936;47.074;15.336;2022-08-01T10:50:57;1.50;;;1.30;;
3841;SDS011;1936;47.074;15.336;2022-08-01T10:53:11;3.37;;;1.30;;
3841;SDS011;1936;47.074;15.336;2022-08-01T10:55:23;1.00;;;0.90;;
3841;SDS011;1936;47.074;15.336;2022-08-01T10:57:39;5.27;;;1.23;;
3841;SDS011;1936;47.074;15.336;2022-08-01T10:59:53;1.00;;;1.00;;
3841;SDS011;1936;47.074;15.336;2022-08-01T11:02:02;1.93;;;1.40;;
3841;SDS011;1936;47.074;15.336;2022-08-01T11:04:09;1.33;;;0.77;;
3841;SDS011;1936;47.074;15.336;2022-08-01T11:06:17;2.60;;;1.27;;
3841;SDS011;1936;47.074;15.336;2022-08-01T11:08:24;1.00;;;0.90;;
3841;SDS011;1936;47.074;15.336;2022-08-01T11:10:30;3.10;;;1.40;;
3841;SDS011;1936;47.074;15.336;2022-08-01T11:12:40;2.10;;;1.50;;
3841;SDS011;1936;47.074;15.336;2022-08-01T11:17:33;1.60;;;1.30;;
3841;SDS011;1936;47.074;15.336;2022-08-01T11:22:09;1.43;;;1.33;;
3841;SDS011;1936;47.074;15.336;2022-08-01T11:24:13;2.80;;;2.60;;
3841;SDS011;1936;47.074;15.336;2022-08-01T11:26:17;3.70;;;1.47;;
3841;SDS011;1936;47.074;15.336;2022-08-01T11:28:30;3.43;;;1.50;;
3841;SDS011;1936;47.074;15.336;2022-08-01T11:30:37;1.40;;;1.30;;
3841;SDS011;1936;47.074;15.336;2022-08-01T11:32:45;4.90;;;1.80;;
3841;SDS011;1936;47.074;15.336;2022-08-01T11:35:10;2.07;;;1.60;;
3841;SDS011;1936;47.074;15.336;2022-08-01T11:37:23;2.37;;;1.30;;
3841;SDS011;1936;47.074;15.336;2022-08-01T11:39:31;1.70;;;1.60;;
3841;SDS011;1936;47.074;15.336;2022-08-01T11:41:39;3.73;;;2.03;;
3841;SDS011;1936;47.074;15.336;2022-08-01T11:43:54;2.27;;;1.47;;
3841;SDS011;1936;47.074;15.336;2022-08-01T11:45:59;4.20;;;1.50;;
3841;SDS011;1936;47.074;15.336;2022-08-01T11:48:03;5.03;;;2.00;;
3841;SDS011;1936;47.074;15.336;2022-08-01T11:50:31;10.80;;;1.77;;
3841;SDS011;1936;47.074;15.336;2022-08-01T11:52:35;3.00;;;1.43;;
3841;SDS011;1936;47.074;15.336;2022-08-01T11:54:44;2.00;;;1.40;;
3841;SDS011;1936;47.074;15.336;2022-08-01T11:56:49;3.20;;;1.03;;
3841;SDS011;1936;47.074;15.336;2022-08-01T11:58:58;4.10;;;1.23;;
3841;SDS011;1936;47.074;15.336;2022-08-01T12:01:04;1.50;;;1.17;;
3841;SDS011;1936;47.074;15.336;2022-08-01T12:03:08;1.30;;;1.20;;
3841;SDS011;1936;47.074;15.336;2022-08-01T12:05:28;4.27;;;1.40;;
3841;SDS011;1936;47.074;15.336;2022-08-01T12:07:36;3.73;;;1.00;;
3841;SDS011;1936;47.074;15.336;2022-08-01T12:09:40;2.93;;;1.03;;
3841;SDS011;1936;47.074;15.336;2022-08-01T12:11:44;5.43;;;1.23;;
3841;SDS011;1936;47.074;15.336;2022-08-01T12:13:48;2.33;;;1.27;;
3841;SDS011;1936;47.074;15.336;2022-08-01T12:15:58;1.30;;;1.03;;
3841;SDS011;1936;47.074;15.336;2022-08-01T12:18:09;1.67;;;1.20;;
3841;SDS011;1936;47.074;15.336;2022-08-01T12:20:13;2.03;;;1.10;;
3841;SDS011;1936;47.074;15.336;2022-08-01T12:22:21;1.20;;;0.90;;
3841;SDS011;1936;47.074;15.336;2022-08-01T12:24:25;2.47;;;1.00;;
3841;SDS011;1936;47.074;15.336;2022-08-01T12:26:38;1.20;;;1.00;;
3841;SDS011;1936;47.074;15.336;2022-08-01T12:28:43;3.67;;;1.17;;
3841;SDS011;1936;47.074;15.336;2022-08-01T12:30:47;1.50;;;1.30;;
3841;SDS011;1936;47.074;15.336;2022-08-01T12:32:51;3.67;;;1.57;;
3841;SDS011;1936;47.074;15.336;2022-08-01T12:34:55;2.23;;;1.70;;
3841;SDS011;1936;47.074;15.336;2022-08-01T12:37:00;1.90;;;0.93;;
3841;SDS011;1936;47.074;15.336;2022-08-01T12:39:07;3.20;;;1.30;;
3841;SDS011;1936;47.074;15.336;2022-08-01T12:41:10;2.70;;;1.10;;
3841;SDS011;1936;47.074;15.336;2022-08-01T12:43:15;2.40;;;1.20;;
3841;SDS011;1936;47.074;15.336;2022-08-01T12:45:30;2.13;;;0.80;;
3841;SDS011;1936;47.074;15.336;2022-08-01T12:47:37;1.40;;;0.80;;
3841;SDS011;1936;47.074;15.336;2022-08-01T12:49:42;2.30;;;1.30;;
3841;SDS011;1936;47.074;15.336;2022-08-01T12:51:47;1.33;;;1.07;;
3841;SDS011;1936;47.074;15.336;2022-08-01T12:53:58;3.30;;;2.00;;
3841;SDS011;1936;47.074;15.336;2022-08-01T12:56:03;4.10;;;1.30;;
3841;SDS011;1936;47.074;15.336;2022-08-01T12:58:07;2.80;;;1.30;;
3841;SDS011;1936;47.074;15.336;2022-08-01T13:00:18;1.47;;;1.37;;
3841;SDS011;1936;47.074;15.336;2022-08-01T13:02:30;1.70;;;1.47;;
3841;SDS011;1936;47.074;15.336;2022-08-01T13:04:42;1.60;;;1.50;;